APW weather

Faleolo International Airport
Apia, A'ana District, Samoa

Public forecast

Using degrees Celsius for public forecast. Weather courtesy of forecast.io.

Current aviation weather report (METAR) for Faleolo International Airport

Retrieved 2019/10/18 10:00 UTC (23 minutes ago):

NSFA 181000Z 16003KT 9999 FEW020CB SCT022 BKN050 26/24 Q1014 RMK LIGHTNING FROM CB TO SSW

Aviation forecast (TAF) for Faleolo International Airport

Retrieved 2019/10/18 06:00 UTC (4 hours ago):

TAF NSFA 180513Z 1806/1906 29006KT 9999 -SHRA SCT022 SCT045 PROB40 TEMPO 1900/1906 3000 TSRA BKN015 FEW018CB